Time,TemperatureF,DewpointF,PressureIn,WindDirection,WindDirectionDegrees,WindSpeedMPH,WindSpeedGustMPH,Humidity,HourlyPrecipIn,Conditions,Clouds,dailyrainin,SoftwareType,DateUTC
2013-04-26 00:00:00,54.3,34.1,30.27,ESE,116,6.4,6.4,35,0.00,,,0.00,dv,2013-04-26 04:00:00,
2013-04-26 00:05:00,54.6,34.4,30.27,ENE,69,3.2,3.2,35,0.00,,,0.00,dv,2013-04-26 04:05:00,
2013-04-26 00:10:00,54.8,36.5,30.27,East,94,4.8,4.8,39,0.00,,,0.00,dv,2013-04-26 04:10:00,
2013-04-26 00:15:00,54.9,36.1,30.27,ESE,122,3.2,3.2,38,0.00,,,0.00,dv,2013-04-26 04:15:00,
2013-04-26 00:20:00,54.9,37.0,30.27,ESE,122,0.0,0.0,40,0.00,,,0.00,dv,2013-04-26 04:20:00,
2013-04-26 00:25:00,54.8,36.9,30.27,SW,232,1.6,1.6,40,0.00,,,0.00,dv,2013-04-26 04:25:00,
2013-04-26 00:30:00,54.6,35.8,30.27,WSW,245,1.6,1.6,38,0.00,,,0.00,dv,2013-04-26 04:30:00,
2013-04-26 00:35:00,54.4,35.2,30.27,SW,235,3.2,3.2,37,0.00,,,0.00,dv,2013-04-26 04:35:00,
2013-04-26 00:40:00,54.3,35.6,30.27,SW,234,1.6,1.6,38,0.00,,,0.00,dv,2013-04-26 04:40:00,
2013-04-26 00:45:00,54.2,37.3,30.26,SW,234,0.0,0.0,42,0.00,,,0.00,dv,2013-04-26 04:45:00,
2013-04-26 00:50:00,54.1,37.7,30.26,SW,234,0.0,0.0,43,0.00,,,0.00,dv,2013-04-26 04:50:00,
2013-04-26 00:55:00,53.8,37.4,30.26,SW,234,0.0,0.0,43,0.00,,,0.00,dv,2013-04-26 04:55:00,
2013-04-26 01:00:00,53.6,36.8,30.27,SW,234,0.0,0.0,42,0.00,,,0.00,dv,2013-04-26 05:00:00,
2013-04-26 01:05:00,53.3,37.4,30.27,SW,234,0.0,0.0,44,0.00,,,0.00,dv,2013-04-26 05:05:00,
2013-04-26 01:10:00,53.0,37.1,30.27,SW,234,0.0,0.0,44,0.00,,,0.00,dv,2013-04-26 05:10:00,
2013-04-26 01:15:00,52.6,37.1,30.27,SW,234,1.6,1.6,45,0.00,,,0.00,dv,2013-04-26 05:15:00,
2013-04-26 01:20:00,52.2,38.4,30.26,SW,234,0.0,0.0,49,0.00,,,0.00,dv,2013-04-26 05:20:00,
2013-04-26 01:25:00,51.9,37.7,30.26,SW,234,0.0,0.0,48,0.00,,,0.00,dv,2013-04-26 05:25:00,
2013-04-26 01:30:00,51.7,37.1,30.27,SW,234,0.0,0.0,47,0.00,,,0.00,dv,2013-04-26 05:30:00,
2013-04-26 01:35:00,51.5,37.0,30.27,SW,234,0.0,0.0,47,0.00,,,0.00,dv,2013-04-26 05:35:00,
2013-04-26 01:40:00,51.4,36.5,30.26,SW,234,0.0,0.0,46,0.00,,,0.00,dv,2013-04-26 05:40:00,
2013-04-26 01:45:00,51.3,36.8,30.26,SW,234,0.0,0.0,47,0.00,,,0.00,dv,2013-04-26 05:45:00,
2013-04-26 01:50:00,51.1,36.6,30.26,SW,234,0.0,0.0,47,0.00,,,0.00,dv,2013-04-26 05:50:00,
2013-04-26 01:55:00,50.8,36.7,30.27,SW,234,0.0,0.0,48,0.00,,,0.00,dv,2013-04-26 05:55:00,
2013-04-26 02:00:00,50.5,37.2,30.27,SW,234,0.0,0.0,50,0.00,,,0.00,dv,2013-04-26 06:00:00,
2013-04-26 02:05:00,50.1,37.5,30.26,SW,234,0.0,0.0,52,0.00,,,0.00,dv,2013-04-26 06:05:00,
2013-04-26 02:10:00,49.7,37.5,30.26,SW,234,0.0,0.0,53,0.00,,,0.00,dv,2013-04-26 06:10:00,
2013-04-26 02:15:00,49.3,36.5,30.26,SW,234,0.0,0.0,51,0.00,,,0.00,dv,2013-04-26 06:15:00,
2013-04-26 02:20:00,48.9,37.1,30.26,SW,234,0.0,0.0,54,0.00,,,0.00,dv,2013-04-26 06:20:00,
2013-04-26 02:25:00,48.5,36.4,30.26,SW,234,0.0,0.0,53,0.00,,,0.00,dv,2013-04-26 06:25:00,
2013-04-26 02:30:00,48.2,36.1,30.26,SW,234,0.0,0.0,53,0.00,,,0.00,dv,2013-04-26 06:30:00,
2013-04-26 02:35:00,48.0,36.3,30.26,SW,234,0.0,0.0,54,0.00,,,0.00,dv,2013-04-26 06:35:00,
2013-04-26 02:40:00,47.8,36.1,30.26,SW,234,0.0,0.0,54,0.00,,,0.00,dv,2013-04-26 06:40:00,
2013-04-26 02:45:00,47.6,35.9,30.25,SW,234,0.0,0.0,54,0.00,,,0.00,dv,2013-04-26 06:45:00,
2013-04-26 02:50:00,47.3,35.7,30.25,SW,234,0.0,0.0,54,0.00,,,0.00,dv,2013-04-26 06:50:00,
2013-04-26 02:55:00,47.0,36.7,30.26,SW,234,0.0,0.0,58,0.00,,,0.00,dv,2013-04-26 06:55:00,
2013-04-26 03:00:00,46.6,36.6,30.25,SW,234,0.0,0.0,59,0.00,,,0.00,dv,2013-04-26 07:00:00,
2013-04-26 03:05:00,46.4,36.4,30.25,SW,234,0.0,0.0,59,0.00,,,0.00,dv,2013-04-26 07:05:00,
2013-04-26 03:10:00,46.1,35.8,30.25,SW,234,0.0,0.0,58,0.00,,,0.00,dv,2013-04-26 07:10:00,
2013-04-26 03:15:00,45.9,36.3,30.25,SW,234,0.0,0.0,60,0.00,,,0.00,dv,2013-04-26 07:15:00,
2013-04-26 03:20:00,45.7,36.1,30.25,SW,234,0.0,0.0,60,0.00,,,0.00,dv,2013-04-26 07:20:00,
2013-04-26 03:25:00,45.6,35.7,30.24,SW,234,0.0,0.0,59,0.00,,,0.00,dv,2013-04-26 07:25:00,
2013-04-26 03:30:00,45.5,35.9,30.24,SW,234,0.0,0.0,60,0.00,,,0.00,dv,2013-04-26 07:30:00,
2013-04-26 03:35:00,45.4,35.8,30.25,SW,234,0.0,0.0,60,0.00,,,0.00,dv,2013-04-26 07:35:00,
2013-04-26 03:40:00,45.4,35.2,30.24,SW,233,0.0,0.0,58,0.00,,,0.00,dv,2013-04-26 07:40:00,
2013-04-26 03:45:00,45.4,35.2,30.25,SW,234,0.0,0.0,58,0.00,,,0.00,dv,2013-04-26 07:45:00,
2013-04-26 03:50:00,45.5,35.3,30.24,SW,234,0.0,0.0,58,0.00,,,0.00,dv,2013-04-26 07:50:00,
2013-04-26 03:55:00,45.6,36.0,30.24,SW,234,0.0,0.0,60,0.00,,,0.00,dv,2013-04-26 07:55:00,
2013-04-26 04:00:00,45.5,35.9,30.25,SW,234,0.0,0.0,60,0.00,,,0.00,dv,2013-04-26 08:00:00,
2013-04-26 04:05:00,45.4,36.1,30.25,SW,234,0.0,0.0,61,0.00,,,0.00,dv,2013-04-26 08:05:00,
2013-04-26 04:10:00,45.4,36.1,30.25,SW,234,0.0,0.0,61,0.00,,,0.00,dv,2013-04-26 08:10:00,
2013-04-26 04:15:00,45.3,36.0,30.25,SW,234,0.0,0.0,61,0.00,,,0.00,dv,2013-04-26 08:15:00,
2013-04-26 04:20:00,45.2,35.6,30.25,SW,234,0.0,0.0,60,0.00,,,0.00,dv,2013-04-26 08:20:00,
2013-04-26 04:25:00,45.0,35.7,30.25,SW,234,0.0,0.0,61,0.00,,,0.00,dv,2013-04-26 08:25:00,
2013-04-26 04:30:00,45.0,35.4,30.25,SW,234,0.0,0.0,60,0.00,,,0.00,dv,2013-04-26 08:30:00,
2013-04-26 04:35:00,44.9,35.0,30.25,SW,234,0.0,0.0,59,0.00,,,0.00,dv,2013-04-26 08:35:00,
2013-04-26 04:40:00,44.9,34.7,30.25,SW,234,0.0,0.0,58,0.00,,,0.00,dv,2013-04-26 08:40:00,
2013-04-26 04:45:00,45.0,35.7,30.25,SW,234,0.0,0.0,61,0.00,,,0.00,dv,2013-04-26 08:45:00,
2013-04-26 04:50:00,44.9,35.9,30.25,SW,234,0.0,0.0,62,0.00,,,0.00,dv,2013-04-26 08:50:00,
2013-04-26 04:55:00,44.9,35.3,30.25,SW,233,0.0,0.0,60,0.00,,,0.00,dv,2013-04-26 08:55:00,
2013-04-26 05:01:00,45.0,35.4,30.26,SW,234,0.0,0.0,60,0.00,,,0.00,dv,2013-04-26 09:01:00,
2013-04-26 05:10:00,45.1,35.2,30.26,SW,234,0.0,0.0,59,0.00,,,0.00,dv,2013-04-26 09:10:00,
2013-04-26 05:15:00,45.0,34.5,30.27,SW,233,0.0,0.0,57,0.00,,,0.00,dv,2013-04-26 09:15:00,
2013-04-26 05:20:00,45.0,33.9,30.27,SW,234,0.0,0.0,55,0.00,,,0.00,dv,2013-04-26 09:20:00,
2013-04-26 05:25:00,45.1,34.9,30.26,SW,234,0.0,0.0,58,0.00,,,0.00,dv,2013-04-26 09:25:00,
2013-04-26 05:30:00,45.2,34.1,30.27,SW,234,0.0,0.0,55,0.00,,,0.00,dv,2013-04-26 09:30:00,
2013-04-26 05:35:00,45.3,34.5,30.27,SW,233,1.6,1.6,56,0.00,,,0.00,dv,2013-04-26 09:35:00,
2013-04-26 05:40:00,45.4,34.6,30.27,SW,234,0.0,0.0,56,0.00,,,0.00,dv,2013-04-26 09:40:00,
2013-04-26 05:45:00,45.3,34.8,30.27,SSE,168,3.2,3.2,57,0.00,,,0.00,dv,2013-04-26 09:45:00,
2013-04-26 05:50:00,45.3,34.5,30.27,SSW,195,0.0,0.0,56,0.00,,,0.00,dv,2013-04-26 09:50:00,
2013-04-26 05:55:00,45.4,34.9,30.27,SSW,195,0.0,0.0,57,0.00,,,0.00,dv,2013-04-26 09:55:00,
2013-04-26 06:00:00,45.4,34.6,30.27,SSW,195,0.0,0.0,56,0.00,,,0.00,dv,2013-04-26 10:00:00,
2013-04-26 06:05:00,45.6,35.7,30.27,SSW,195,0.0,0.0,59,0.00,,,0.00,dv,2013-04-26 10:05:00,
2013-04-26 06:10:00,45.6,35.1,30.28,SSW,195,0.0,0.0,57,0.00,,,0.00,dv,2013-04-26 10:10:00,
2013-04-26 06:15:00,45.7,35.5,30.28,SSW,195,0.0,0.0,58,0.00,,,0.00,dv,2013-04-26 10:15:00,
2013-04-26 06:20:00,45.8,35.6,30.28,SSW,195,0.0,0.0,58,0.00,,,0.00,dv,2013-04-26 10:20:00,
2013-04-26 06:25:00,45.8,35.9,30.28,SSW,195,0.0,0.0,59,0.00,,,0.00,dv,2013-04-26 10:25:00,
2013-04-26 06:30:00,45.8,35.9,30.28,SSW,195,0.0,0.0,59,0.00,,,0.00,dv,2013-04-26 10:30:00,
2013-04-26 06:35:00,45.7,35.8,30.28,SSW,195,0.0,0.0,59,0.00,,,0.00,dv,2013-04-26 10:35:00,
2013-04-26 06:40:00,45.6,35.7,30.29,SSW,195,0.0,0.0,59,0.00,,,0.00,dv,2013-04-26 10:40:00,
2013-04-26 06:45:00,45.5,35.6,30.29,SSW,195,0.0,0.0,59,0.00,,,0.00,dv,2013-04-26 10:45:00,
2013-04-26 06:50:00,45.3,35.4,30.30,SSW,195,0.0,0.0,59,0.00,,,0.00,dv,2013-04-26 10:50:00,
2013-04-26 06:55:00,45.0,35.4,30.30,SSW,195,0.0,0.0,60,0.00,,,0.00,dv,2013-04-26 10:55:00,
2013-04-26 07:00:00,44.7,36.6,30.30,SSW,195,0.0,0.0,65,0.00,,,0.00,dv,2013-04-26 11:00:00,
2013-04-26 07:05:00,44.1,36.3,30.30,SSW,195,0.0,0.0,66,0.00,,,0.00,dv,2013-04-26 11:05:00,
2013-04-26 07:10:00,43.4,35.7,30.30,SSW,195,0.0,0.0,66,0.00,,,0.00,dv,2013-04-26 11:10:00,
2013-04-26 07:15:00,43.1,35.6,30.31,SSW,195,0.0,0.0,67,0.00,,,0.00,dv,2013-04-26 11:15:00,
2013-04-26 07:20:00,42.9,35.5,30.32,SSW,195,0.0,0.0,67,0.00,,,0.00,dv,2013-04-26 11:20:00,
2013-04-26 07:25:00,42.7,35.5,30.32,SSW,195,0.0,0.0,68,0.00,,,0.00,dv,2013-04-26 11:25:00,
2013-04-26 07:30:00,42.6,35.2,30.32,SSW,195,0.0,0.0,67,0.00,,,0.00,dv,2013-04-26 11:30:00,
2013-04-26 07:35:00,42.6,35.4,30.32,SSW,196,0.0,0.0,68,0.00,,,0.00,dv,2013-04-26 11:35:00,
2013-04-26 07:40:00,42.6,34.9,30.32,SSW,195,0.0,0.0,66,0.00,,,0.00,dv,2013-04-26 11:40:00,
2013-04-26 07:45:00,42.6,35.2,30.33,SSW,195,0.0,0.0,67,0.00,,,0.00,dv,2013-04-26 11:45:00,
2013-04-26 07:50:00,42.7,35.5,30.33,SSW,195,0.0,0.0,68,0.00,,,0.00,dv,2013-04-26 11:50:00,
2013-04-26 07:55:00,42.8,35.9,30.33,SSW,196,0.0,0.0,69,0.00,,,0.00,dv,2013-04-26 11:55:00,
2013-04-26 08:00:00,43.0,36.3,30.34,SSW,195,0.0,0.0,70,0.00,,,0.00,dv,2013-04-26 12:00:00,
2013-04-26 08:05:00,43.3,37.1,30.33,SSW,195,0.0,0.0,72,0.00,,,0.00,dv,2013-04-26 12:05:00,
2013-04-26 08:10:00,43.5,37.3,30.34,SSW,195,0.0,0.0,72,0.00,,,0.00,dv,2013-04-26 12:10:00,
2013-04-26 08:15:00,43.7,37.5,30.34,SSW,195,0.0,0.0,72,0.00,,,0.00,dv,2013-04-26 12:15:00,
2013-04-26 08:20:00,44.0,38.1,30.34,SSW,195,0.0,0.0,73,0.00,,,0.00,dv,2013-04-26 12:20:00,
2013-04-26 08:25:00,44.3,38.4,30.35,SSW,195,0.0,0.0,73,0.00,,,0.00,dv,2013-04-26 12:25:00,
2013-04-26 08:30:00,44.5,38.3,30.36,SSW,195,0.0,0.0,72,0.00,,,0.00,dv,2013-04-26 12:30:00,
2013-04-26 08:35:00,44.7,38.2,30.36,SSW,195,0.0,0.0,71,0.00,,,0.00,dv,2013-04-26 12:35:00,
2013-04-26 08:40:00,45.0,38.3,30.37,SSW,195,0.0,0.0,70,0.00,,,0.00,dv,2013-04-26 12:40:00,
2013-04-26 08:45:00,45.3,38.3,30.36,SSW,195,0.0,0.0,69,0.00,,,0.00,dv,2013-04-26 12:45:00,
2013-04-26 08:50:00,45.7,38.7,30.36,SSW,195,0.0,0.0,69,0.00,,,0.00,dv,2013-04-26 12:50:00,
2013-04-26 08:55:00,46.1,39.8,30.36,SSW,195,0.0,0.0,72,0.00,,,0.00,dv,2013-04-26 12:55:00,
2013-04-26 09:00:00,46.5,39.9,30.36,SSW,195,0.0,0.0,71,0.00,,,0.00,dv,2013-04-26 13:00:00,
2013-04-26 09:05:00,46.9,40.6,30.36,SSW,195,0.0,0.0,72,0.00,,,0.00,dv,2013-04-26 13:05:00,
2013-04-26 09:10:00,47.3,40.7,30.35,SSW,195,0.0,0.0,71,0.00,,,0.00,dv,2013-04-26 13:10:00,
2013-04-26 09:15:00,47.7,40.6,30.35,SSW,195,0.0,0.0,69,0.00,,,0.00,dv,2013-04-26 13:15:00,
2013-04-26 09:20:00,48.3,40.0,30.35,SSE,158,0.0,0.0,65,0.00,,,0.00,dv,2013-04-26 13:20:00,
2013-04-26 09:25:00,49.0,41.2,30.35,SSE,158,0.0,0.0,67,0.00,,,0.00,dv,2013-04-26 13:25:00,
2013-04-26 09:30:00,49.7,40.7,30.35,SSE,157,1.6,1.6,63,0.00,,,0.00,dv,2013-04-26 13:30:00,
2013-04-26 09:35:00,50.6,41.3,30.35,South,174,3.2,3.2,62,0.00,,,0.00,dv,2013-04-26 13:35:00,
2013-04-26 09:40:00,51.4,41.1,30.34,ESE,112,3.2,3.2,59,0.00,,,0.00,dv,2013-04-26 13:40:00,
2013-04-26 09:45:00,52.2,41.8,30.35,ESE,111,1.6,1.6,59,0.00,,,0.00,dv,2013-04-26 13:45:00,
2013-04-26 09:50:00,53.2,41.8,30.35,ENE,73,4.8,4.8,56,0.00,,,0.00,dv,2013-04-26 13:50:00,
2013-04-26 09:55:00,54.0,41.5,30.35,ENE,73,1.6,1.6,53,0.00,,,0.00,dv,2013-04-26 13:55:00,
2013-04-26 10:00:00,54.9,41.6,30.34,SE,135,3.2,3.2,51,0.00,,,0.00,dv,2013-04-26 14:00:00,
2013-04-26 10:05:00,55.8,41.6,30.34,ESE,108,4.8,4.8,49,0.00,,,0.00,dv,2013-04-26 14:05:00,
2013-04-26 10:10:00,56.6,42.0,30.34,ENE,61,4.8,4.8,48,0.00,,,0.00,dv,2013-04-26 14:10:00,
2013-04-26 10:15:00,57.3,40.9,30.34,ESE,113,8.1,8.1,44,0.00,,,0.00,dv,2013-04-26 14:15:00,
2013-04-26 10:20:00,57.9,40.6,30.34,South,170,6.4,6.4,42,0.00,,,0.00,dv,2013-04-26 14:20:00,
2013-04-26 10:25:00,58.3,41.4,30.35,South,183,8.1,8.1,43,0.00,,,0.00,dv,2013-04-26 14:25:00,
2013-04-26 10:30:00,58.7,40.9,30.36,East,86,8.1,8.1,41,0.00,,,0.00,dv,2013-04-26 14:30:00,
2013-04-26 10:40:00,59.4,42.4,30.36,East,100,3.2,3.2,43,0.00,,,0.00,dv,2013-04-26 14:40:00,
2013-04-26 10:45:00,59.9,42.4,30.35,South,179,3.2,3.2,42,0.00,,,0.00,dv,2013-04-26 14:45:00,
2013-04-26 10:50:00,60.2,42.2,30.36,South,187,1.6,1.6,41,0.00,,,0.00,dv,2013-04-26 14:50:00,
2013-04-26 10:55:00,60.7,43.1,30.37,South,174,4.8,4.8,42,0.00,,,0.00,dv,2013-04-26 14:55:00,
2013-04-26 11:00:00,61.1,42.5,30.37,South,182,4.8,4.8,40,0.00,,,0.00,dv,2013-04-26 15:00:00,
2013-04-26 11:05:00,61.4,42.8,30.38,ENE,64,4.8,4.8,40,0.00,,,0.00,dv,2013-04-26 15:05:00,
2013-04-26 11:10:00,61.6,42.9,30.38,SSE,160,6.4,6.4,40,0.00,,,0.00,dv,2013-04-26 15:10:00,
2013-04-26 11:15:00,61.8,42.1,30.37,ENE,65,6.4,6.4,38,0.00,,,0.00,dv,2013-04-26 15:15:00,
2013-04-26 11:20:00,62.0,43.3,30.37,ENE,78,8.1,8.1,40,0.00,,,0.00,dv,2013-04-26 15:20:00,
2013-04-26 11:25:00,62.3,42.6,30.37,East,85,3.2,3.2,38,0.00,,,0.00,dv,2013-04-26 15:25:00,
2013-04-26 11:30:00,62.6,43.3,30.37,SW,217,3.2,3.2,39,0.00,,,0.00,dv,2013-04-26 15:30:00,
2013-04-26 11:35:00,62.8,42.5,30.38,ENE,78,4.8,4.8,37,0.00,,,0.00,dv,2013-04-26 15:35:00,
2013-04-26 11:40:00,63.0,43.7,30.39,East,92,4.8,4.8,39,0.00,,,0.00,dv,2013-04-26 15:40:00,
2013-04-26 11:45:00,63.3,43.5,30.38,ENE,73,3.2,3.2,38,0.00,,,0.00,dv,2013-04-26 15:45:00,
2013-04-26 11:50:00,63.5,43.6,30.38,ESE,118,4.8,4.8,38,0.00,,,0.00,dv,2013-04-26 15:50:00,
2013-04-26 11:55:00,63.7,44.8,30.38,ENE,76,6.4,6.4,40,0.00,,,0.00,dv,2013-04-26 15:55:00,
2013-04-26 12:00:00,64.0,44.1,30.38,East,95,4.8,4.8,38,0.00,,,0.00,dv,2013-04-26 16:00:00,
2013-04-26 12:05:00,64.1,44.2,30.38,ENE,62,3.2,3.2,38,0.00,,,0.00,dv,2013-04-26 16:05:00,
2013-04-26 12:10:00,64.3,43.8,30.38,SSE,163,3.2,3.2,37,0.00,,,0.00,dv,2013-04-26 16:10:00,
2013-04-26 12:15:00,64.5,44.5,30.38,ESE,119,4.8,4.8,38,0.00,,,0.00,dv,2013-04-26 16:15:00,
2013-04-26 12:20:00,64.8,45.8,30.38,East,99,3.2,3.2,40,0.00,,,0.00,dv,2013-04-26 16:20:00,
2013-04-26 12:25:00,65.0,45.4,30.38,ENE,74,4.8,4.8,39,0.00,,,0.00,dv,2013-04-26 16:25:00,
2013-04-26 12:30:00,65.3,44.7,30.38,SE,143,4.8,4.8,37,0.00,,,0.00,dv,2013-04-26 16:30:00,
2013-04-26 12:35:00,65.6,45.5,30.38,South,185,4.8,4.8,38,0.00,,,0.00,dv,2013-04-26 16:35:00,
2013-04-26 12:40:00,65.9,45.2,30.38,ENE,63,4.8,4.8,37,0.00,,,0.00,dv,2013-04-26 16:40:00,
2013-04-26 12:45:00,66.2,46.0,30.38,SE,146,6.4,6.4,38,0.00,,,0.00,dv,2013-04-26 16:45:00,
2013-04-26 12:50:00,66.4,45.1,30.38,SSE,163,3.2,3.2,36,0.00,,,0.00,dv,2013-04-26 16:50:00,
2013-04-26 12:55:00,66.6,45.3,30.37,SSE,153,3.2,3.2,36,0.00,,,0.00,dv,2013-04-26 16:55:00,
2013-04-26 13:00:00,66.7,44.8,30.37,East,88,4.8,4.8,35,0.00,,,0.00,dv,2013-04-26 17:00:00,
2013-04-26 13:05:00,66.6,45.3,30.36,SSW,196,4.8,4.8,36,0.00,,,0.00,dv,2013-04-26 17:05:00,
2013-04-26 13:10:00,66.7,45.4,30.36,SSE,153,3.2,3.2,36,0.00,,,0.00,dv,2013-04-26 17:10:00,
2013-04-26 13:15:00,66.7,45.4,30.37,ENE,78,6.4,6.4,36,0.00,,,0.00,dv,2013-04-26 17:15:00,
2013-04-26 13:20:00,66.9,46.1,30.36,South,173,4.8,4.8,37,0.00,,,0.00,dv,2013-04-26 17:20:00,
2013-04-26 13:25:00,67.1,46.3,30.37,ENE,73,4.8,4.8,37,0.00,,,0.00,dv,2013-04-26 17:25:00,
2013-04-26 13:30:00,67.4,46.0,30.36,ENE,73,4.8,4.8,36,0.00,,,0.00,dv,2013-04-26 17:30:00,
2013-04-26 13:35:00,67.5,45.5,30.36,ENE,74,6.4,6.4,35,0.00,,,0.00,dv,2013-04-26 17:35:00,
2013-04-26 13:40:00,67.5,46.1,30.36,East,82,6.4,6.4,36,0.00,,,0.00,dv,2013-04-26 17:40:00,
2013-04-26 13:45:00,67.6,45.6,30.36,SE,127,6.4,6.4,35,0.00,,,0.00,dv,2013-04-26 17:45:00,
2013-04-26 13:50:00,67.8,45.8,30.36,SSE,157,3.2,3.2,35,0.00,,,0.00,dv,2013-04-26 17:50:00,
2013-04-26 13:55:00,68.1,46.0,30.35,ENE,63,4.8,4.8,35,0.00,,,0.00,dv,2013-04-26 17:55:00,
2013-04-26 14:00:00,68.3,46.2,30.35,ENE,71,4.8,4.8,35,0.00,,,0.00,dv,2013-04-26 18:00:00,
2013-04-26 14:05:00,68.5,46.4,30.35,South,177,4.8,4.8,35,0.00,,,0.00,dv,2013-04-26 18:05:00,
2013-04-26 14:10:00,68.7,47.1,30.35,ESE,110,3.2,3.2,36,0.00,,,0.00,dv,2013-04-26 18:10:00,
2013-04-26 14:15:00,69.0,46.8,30.35,SSE,153,1.6,1.6,35,0.00,,,0.00,dv,2013-04-26 18:15:00,
2013-04-26 14:20:00,69.4,46.6,30.35,West,265,3.2,3.2,34,0.00,,,0.00,dv,2013-04-26 18:20:00,
2013-04-26 14:25:00,69.7,46.3,30.34,South,184,3.2,3.2,33,0.00,,,0.00,dv,2013-04-26 18:25:00,
2013-04-26 14:30:00,69.7,46.3,30.34,South,183,1.6,1.6,33,0.00,,,0.00,dv,2013-04-26 18:30:00,
2013-04-26 14:35:00,69.8,46.9,30.34,NE,41,4.8,4.8,34,0.00,,,0.00,dv,2013-04-26 18:35:00,
2013-04-26 14:40:00,70.0,46.5,30.34,ENE,72,4.8,4.8,33,0.00,,,0.00,dv,2013-04-26 18:40:00,
2013-04-26 14:45:00,70.2,46.7,30.33,ENE,72,0.0,0.0,33,0.00,,,0.00,dv,2013-04-26 18:45:00,
2013-04-26 14:50:00,70.2,46.7,30.33,ENE,75,4.8,4.8,33,0.00,,,0.00,dv,2013-04-26 18:50:00,
2013-04-26 14:55:00,70.2,46.1,30.33,ENE,75,4.8,4.8,32,0.00,,,0.00,dv,2013-04-26 18:55:00,
2013-04-26 15:00:00,70.1,47.2,30.33,SSE,166,4.8,4.8,34,0.00,,,0.00,dv,2013-04-26 19:00:00,
2013-04-26 15:05:00,70.1,46.6,30.32,ENE,65,3.2,3.2,33,0.00,,,0.00,dv,2013-04-26 19:05:00,
2013-04-26 15:10:00,70.2,46.7,30.31,ESE,117,3.2,3.2,33,0.00,,,0.00,dv,2013-04-26 19:10:00,
2013-04-26 15:15:00,70.2,47.3,30.32,East,81,8.1,8.1,34,0.00,,,0.00,dv,2013-04-26 19:15:00,
2013-04-26 15:20:00,70.3,47.4,30.31,ESE,123,3.2,3.2,34,0.00,,,0.00,dv,2013-04-26 19:20:00,
2013-04-26 15:25:00,70.6,47.0,30.31,ESE,121,3.2,3.2,33,0.00,,,0.00,dv,2013-04-26 19:25:00,
2013-04-26 15:30:00,70.8,46.0,30.32,WNW,282,3.2,3.2,31,0.00,,,0.00,dv,2013-04-26 19:30:00,
2013-04-26 15:35:00,70.9,47.3,30.32,ENE,68,4.8,4.8,33,0.00,,,0.00,dv,2013-04-26 19:35:00,
2013-04-26 15:40:00,71.0,47.4,30.31,ENE,68,1.6,1.6,33,0.00,,,0.00,dv,2013-04-26 19:40:00,
2013-04-26 15:45:00,71.2,48.1,30.30,East,86,4.8,4.8,34,0.00,,,0.00,dv,2013-04-26 19:45:00,
2013-04-26 15:50:00,71.4,47.7,30.30,ENE,76,3.2,3.2,33,0.00,,,0.00,dv,2013-04-26 19:50:00,
2013-04-26 15:55:00,71.4,47.7,30.30,NW,312,4.8,4.8,33,0.00,,,0.00,dv,2013-04-26 19:55:00,
2013-04-26 16:00:00,71.6,47.9,30.30,SW,222,1.6,1.6,33,0.00,,,0.00,dv,2013-04-26 20:00:00,
2013-04-26 16:05:00,71.8,48.0,30.30,East,99,3.2,3.2,33,0.00,,,0.00,dv,2013-04-26 20:05:00,
2013-04-26 16:10:00,71.8,48.0,30.29,East,81,3.2,3.2,33,0.00,,,0.00,dv,2013-04-26 20:10:00,
2013-04-26 16:15:00,71.7,46.7,30.29,ENE,78,4.8,4.8,31,0.00,,,0.00,dv,2013-04-26 20:15:00,
2013-04-26 16:20:00,71.7,47.4,30.29,ENE,78,3.2,3.2,32,0.00,,,0.00,dv,2013-04-26 20:20:00,
2013-04-26 16:25:00,71.5,47.2,30.29,ENE,78,3.2,3.2,32,0.00,,,0.00,dv,2013-04-26 20:25:00,
2013-04-26 16:30:00,71.4,47.7,30.29,ESE,105,4.8,4.8,33,0.00,,,0.00,dv,2013-04-26 20:30:00,
2013-04-26 16:35:00,71.5,47.8,30.29,ESE,105,1.6,1.6,33,0.00,,,0.00,dv,2013-04-26 20:35:00,
2013-04-26 16:40:00,71.7,48.0,30.29,East,97,3.2,3.2,33,0.00,,,0.00,dv,2013-04-26 20:40:00,
2013-04-26 16:45:00,71.9,48.1,30.28,East,97,0.0,0.0,33,0.00,,,0.00,dv,2013-04-26 20:45:00,
2013-04-26 16:50:00,72.0,48.2,30.28,East,97,1.6,1.6,33,0.00,,,0.00,dv,2013-04-26 20:50:00,
2013-04-26 16:55:00,72.1,48.3,30.28,East,97,1.6,1.6,33,0.00,,,0.00,dv,2013-04-26 20:55:00,
2013-04-26 17:00:00,72.2,48.4,30.28,East,97,1.6,1.6,33,0.00,,,0.00,dv,2013-04-26 21:00:00,
2013-04-26 17:05:00,72.3,49.1,30.27,East,97,0.0,0.0,34,0.00,,,0.00,dv,2013-04-26 21:05:00,
2013-04-26 17:10:00,72.1,48.3,30.28,East,86,3.2,3.2,33,0.00,,,0.00,dv,2013-04-26 21:10:00,
2013-04-26 17:15:00,71.9,48.1,30.27,ENE,75,4.8,4.8,33,0.00,,,0.00,dv,2013-04-26 21:15:00,
2013-04-26 17:20:00,71.8,48.0,30.28,South,186,3.2,3.2,33,0.00,,,0.00,dv,2013-04-26 21:20:00,
2013-04-26 17:25:00,71.9,48.1,30.28,SW,214,3.2,3.2,33,0.00,,,0.00,dv,2013-04-26 21:25:00,
2013-04-26 17:30:00,72.0,48.2,30.28,SSE,156,0.0,0.0,33,0.00,,,0.00,dv,2013-04-26 21:30:00,
2013-04-26 17:35:00,72.0,48.2,30.28,SE,124,3.2,3.2,33,0.00,,,0.00,dv,2013-04-26 21:35:00,
2013-04-26 17:40:00,72.0,48.2,30.28,SE,124,0.0,0.0,33,0.00,,,0.00,dv,2013-04-26 21:40:00,
2013-04-26 17:45:00,71.9,48.1,30.28,SE,136,1.6,1.6,33,0.00,,,0.00,dv,2013-04-26 21:45:00,
2013-04-26 17:50:00,71.8,48.0,30.27,SE,136,1.6,1.6,33,0.00,,,0.00,dv,2013-04-26 21:50:00,
2013-04-26 17:55:00,71.7,46.7,30.27,South,191,1.6,1.6,31,0.00,,,0.00,dv,2013-04-26 21:55:00,
2013-04-26 18:00:00,71.6,47.9,30.27,South,191,1.6,1.6,33,0.00,,,0.00,dv,2013-04-26 22:00:00,
2013-04-26 18:05:00,71.4,48.3,30.26,South,191,1.6,1.6,34,0.00,,,0.00,dv,2013-04-26 22:05:00,
2013-04-26 18:10:00,71.3,47.6,30.27,South,191,0.0,0.0,33,0.00,,,0.00,dv,2013-04-26 22:10:00,
2013-04-26 18:15:00,71.3,47.6,30.27,SSW,192,0.0,0.0,33,0.00,,,0.00,dv,2013-04-26 22:15:00,
2013-04-26 18:20:00,71.2,47.5,30.27,SSW,192,1.6,1.6,33,0.00,,,0.00,dv,2013-04-26 22:20:00,
2013-04-26 18:25:00,71.0,48.0,30.27,South,191,1.6,1.6,34,0.00,,,0.00,dv,2013-04-26 22:25:00,
2013-04-26 18:30:00,70.7,48.3,30.27,South,191,1.6,1.6,35,0.00,,,0.00,dv,2013-04-26 22:30:00,
2013-04-26 18:35:00,70.4,47.4,30.28,South,191,1.6,1.6,34,0.00,,,0.00,dv,2013-04-26 22:35:00,
2013-04-26 18:40:00,70.3,47.9,30.28,NE,37,1.6,1.6,35,0.00,,,0.00,dv,2013-04-26 22:40:00,
2013-04-26 18:45:00,70.1,48.3,30.29,NE,37,0.0,0.0,36,0.00,,,0.00,dv,2013-04-26 22:45:00,
2013-04-26 18:50:00,69.9,48.1,30.29,NE,37,0.0,0.0,36,0.00,,,0.00,dv,2013-04-26 22:50:00,
2013-04-26 18:55:00,69.8,49.1,30.29,NE,37,0.0,0.0,38,0.00,,,0.00,dv,2013-04-26 22:55:00,
2013-04-26 19:00:00,69.7,48.5,30.29,NE,37,0.0,0.0,37,0.00,,,0.00,dv,2013-04-26 23:00:00,
2013-04-26 19:05:00,69.4,48.8,30.29,NE,37,0.0,0.0,38,0.00,,,0.00,dv,2013-04-26 23:05:00,
2013-04-26 19:10:00,69.3,49.7,30.29,NE,37,0.0,0.0,40,0.00,,,0.00,dv,2013-04-26 23:10:00,
2013-04-26 19:15:00,69.1,49.0,30.30,NE,37,0.0,0.0,39,0.00,,,0.00,dv,2013-04-26 23:15:00,
2013-04-26 19:20:00,69.0,49.9,30.30,NE,37,0.0,0.0,41,0.00,,,0.00,dv,2013-04-26 23:20:00,
2013-04-26 19:25:00,68.8,49.8,30.30,NE,37,0.0,0.0,41,0.00,,,0.00,dv,2013-04-26 23:25:00,
2013-04-26 19:30:00,68.6,50.6,30.30,NE,37,0.0,0.0,43,0.00,,,0.00,dv,2013-04-26 23:30:00,
2013-04-26 19:35:00,68.4,51.7,30.31,NE,37,0.0,0.0,46,0.00,,,0.00,dv,2013-04-26 23:35:00,
2013-04-26 19:40:00,68.2,51.1,30.31,NE,37,0.0,0.0,45,0.00,,,0.00,dv,2013-04-26 23:40:00,
2013-04-26 19:45:00,67.9,51.7,30.31,NE,37,0.0,0.0,47,0.00,,,0.00,dv,2013-04-26 23:45:00,
2013-04-26 19:50:00,67.6,51.9,30.32,NE,37,0.0,0.0,48,0.00,,,0.00,dv,2013-04-26 23:50:00,
2013-04-26 19:55:00,67.3,51.6,30.32,NE,37,0.0,0.0,48,0.00,,,0.00,dv,2013-04-26 23:55:00,
2013-04-26 20:05:00,66.6,49.2,30.32,NE,37,0.0,0.0,44,0.00,,,0.00,dv,2013-04-27 00:05:00,
2013-04-26 20:15:00,65.9,50.8,30.32,NE,37,0.0,0.0,49,0.00,,,0.00,dv,2013-04-27 00:15:00,
2013-04-26 20:20:00,65.6,50.5,30.32,NE,37,0.0,0.0,49,0.00,,,0.00,dv,2013-04-27 00:20:00,
2013-04-26 20:25:00,65.4,50.7,30.32,NE,37,0.0,0.0,50,0.00,,,0.00,dv,2013-04-27 00:25:00,
2013-04-26 20:30:00,65.3,50.6,30.32,NE,37,0.0,0.0,50,0.00,,,0.00,dv,2013-04-27 00:30:00,
2013-04-26 20:35:00,65.1,50.8,30.31,NE,37,0.0,0.0,51,0.00,,,0.00,dv,2013-04-27 00:35:00,
2013-04-26 20:40:00,64.9,50.3,30.30,NE,37,0.0,0.0,50,0.00,,,0.00,dv,2013-04-27 00:40:00,
2013-04-26 20:45:00,64.6,50.8,30.30,NE,37,0.0,0.0,52,0.00,,,0.00,dv,2013-04-27 00:45:00,
2013-04-26 20:50:00,64.4,50.2,30.30,NE,37,0.0,0.0,51,0.00,,,0.00,dv,2013-04-27 00:50:00,
2013-04-26 20:55:00,64.2,50.0,30.29,NE,37,0.0,0.0,51,0.00,,,0.00,dv,2013-04-27 00:55:00,
2013-04-26 21:00:00,64.0,50.6,30.29,NE,37,0.0,0.0,53,0.00,,,0.00,dv,2013-04-27 01:00:00,
2013-04-26 21:05:00,63.7,50.3,30.29,NE,37,0.0,0.0,53,0.00,,,0.00,dv,2013-04-27 01:05:00,
2013-04-26 21:10:00,63.5,50.2,30.28,NE,37,0.0,0.0,53,0.00,,,0.00,dv,2013-04-27 01:10:00,
2013-04-26 21:15:00,63.2,50.6,30.28,NE,37,0.0,0.0,55,0.00,,,0.00,dv,2013-04-27 01:15:00,
2013-04-26 21:20:00,63.0,50.8,30.26,NE,37,0.0,0.0,56,0.00,,,0.00,dv,2013-04-27 01:20:00,
2013-04-26 21:25:00,62.6,50.4,30.25,NE,37,0.0,0.0,56,0.00,,,0.00,dv,2013-04-27 01:25:00,
2013-04-26 21:30:00,62.3,50.2,30.24,NE,37,0.0,0.0,56,0.00,,,0.00,dv,2013-04-27 01:30:00,
2013-04-26 21:35:00,62.0,49.2,30.25,NE,37,0.0,0.0,54,0.00,,,0.00,dv,2013-04-27 01:35:00,
2013-04-26 21:40:00,61.8,49.0,30.25,NE,37,0.0,0.0,54,0.00,,,0.00,dv,2013-04-27 01:40:00,
2013-04-26 21:45:00,61.6,48.4,30.26,NE,37,0.0,0.0,53,0.00,,,0.00,dv,2013-04-27 01:45:00,
2013-04-26 21:50:00,61.5,48.7,30.25,NE,37,0.0,0.0,54,0.00,,,0.00,dv,2013-04-27 01:50:00,
2013-04-26 21:55:00,61.5,48.3,30.26,NE,37,0.0,0.0,53,0.00,,,0.00,dv,2013-04-27 01:55:00,
2013-04-26 22:00:00,61.4,48.2,30.27,NE,37,0.0,0.0,53,0.00,,,0.00,dv,2013-04-27 02:00:00,
2013-04-26 22:05:00,61.4,47.5,30.26,NE,37,0.0,0.0,51,0.00,,,0.00,dv,2013-04-27 02:05:00,
2013-04-26 22:10:00,61.3,47.8,30.27,NE,37,0.0,0.0,52,0.00,,,0.00,dv,2013-04-27 02:10:00,
2013-04-26 22:15:00,61.3,47.4,30.26,NE,37,0.0,0.0,51,0.00,,,0.00,dv,2013-04-27 02:15:00,
2013-04-26 22:20:00,61.4,47.9,30.27,NE,37,0.0,0.0,52,0.00,,,0.00,dv,2013-04-27 02:20:00,
2013-04-26 22:25:00,61.3,47.4,30.27,NE,37,0.0,0.0,51,0.00,,,0.00,dv,2013-04-27 02:25:00,
2013-04-26 22:30:00,61.3,47.4,30.27,NE,37,0.0,0.0,51,0.00,,,0.00,dv,2013-04-27 02:30:00,
2013-04-26 22:35:00,61.3,47.4,30.27,NE,37,0.0,0.0,51,0.00,,,0.00,dv,2013-04-27 02:35:00,
2013-04-26 22:40:00,61.3,47.8,30.27,NE,37,0.0,0.0,52,0.00,,,0.00,dv,2013-04-27 02:40:00,
2013-04-26 22:45:00,61.3,47.8,30.28,NE,37,0.0,0.0,52,0.00,,,0.00,dv,2013-04-27 02:45:00,
2013-04-26 22:50:00,61.3,47.8,30.29,NE,37,0.0,0.0,52,0.00,,,0.00,dv,2013-04-27 02:50:00,
2013-04-26 22:55:00,61.2,47.7,30.31,NE,37,0.0,0.0,52,0.00,,,0.00,dv,2013-04-27 02:55:00,
2013-04-26 23:00:00,61.2,48.1,30.33,NE,37,0.0,0.0,53,0.00,,,0.00,dv,2013-04-27 03:00:00,
2013-04-26 23:05:00,61.2,47.7,30.32,NE,37,0.0,0.0,52,0.00,,,0.00,dv,2013-04-27 03:05:00,
2013-04-26 23:10:00,61.1,48.0,30.32,NE,37,0.0,0.0,53,0.00,,,0.00,dv,2013-04-27 03:10:00,
2013-04-26 23:15:00,61.0,48.2,30.32,NE,37,0.0,0.0,54,0.00,,,0.00,dv,2013-04-27 03:15:00,
2013-04-26 23:20:00,61.0,48.6,30.32,NE,37,0.0,0.0,55,0.00,,,0.00,dv,2013-04-27 03:20:00,
2013-04-26 23:25:00,61.0,48.6,30.31,NE,37,0.0,0.0,55,0.00,,,0.00,dv,2013-04-27 03:25:00,
2013-04-26 23:30:00,61.0,49.3,30.32,NE,37,0.0,0.0,57,0.00,,,0.00,dv,2013-04-27 03:30:00,
2013-04-26 23:35:00,61.0,49.3,30.33,NE,37,0.0,0.0,57,0.00,,,0.00,dv,2013-04-27 03:35:00,
2013-04-26 23:40:00,60.9,49.6,30.33,NE,37,0.0,0.0,58,0.00,,,0.00,dv,2013-04-27 03:40:00,
2013-04-26 23:45:00,60.9,49.2,30.31,NE,37,0.0,0.0,57,0.00,,,0.00,dv,2013-04-27 03:45:00,
2013-04-26 23:50:00,60.8,49.8,30.30,NE,37,0.0,0.0,59,0.00,,,0.00,dv,2013-04-27 03:50:00,
2013-04-26 23:55:00,60.6,50.3,30.31,NE,37,0.0,0.0,61,0.00,,,0.00,dv,2013-04-27 03:55:00,